Time;durP1;ratioP1;P1;durP2;ratioP2;P2;SDS_P1;SDS_P2;PMS_P1;PMS_P2;Temp;Humidity;BMP_temperature;BMP_pressure;BME280_temperature;BME280_humidity;BME280_pressure;Samples;Min_cycle;Max_cycle;Signal;HPM_P1;HPM_P2
2023/12/10 00:00:34;;;;;;;23.90;2.97;;;9.60;99.90;;;;;;5006297;28;20029;-92
2023/12/10 00:02:59;;;;;;;23.25;2.50;;;9.70;99.90;;;;;;5011993;28;20026;-90
2023/12/10 00:05:25;;;;;;;20.83;2.95;;;9.70;99.90;;;;;;5011093;28;20026;-91
2023/12/10 00:07:50;;;;;;;32.50;3.35;;;9.70;99.90;;;;;;5012750;28;20034;-92
2023/12/10 00:10:16;;;;;;;21.52;3.10;;;9.70;99.90;;;;;;5007398;28;20075;-92
2023/12/10 00:12:41;;;;;;;29.98;3.05;;;9.70;99.90;;;;;;5004223;28;20030;-92
2023/12/10 00:15:08;;;;;;;32.05;2.70;;;9.70;99.90;;;;;;5009546;28;20482;-93
2023/12/10 00:17:34;;;;;;;26.55;2.75;;;9.70;99.90;;;;;;5011870;28;20018;-92
2023/12/10 00:19:59;;;;;;;24.15;2.45;;;9.80;99.90;;;;;;4999126;28;20066;-91
2023/12/10 00:22:25;;;;;;;32.42;3.33;;;9.70;99.90;;;;;;5006262;28;20027;-92
2023/12/10 00:24:51;;;;;;;23.85;2.78;;;9.70;99.90;;;;;;5011462;28;20041;-92
2023/12/10 00:27:16;;;;;;;25.70;3.10;;;9.70;99.90;;;;;;5011129;28;20029;-91
2023/12/10 00:29:42;;;;;;;27.38;3.30;;;9.70;99.90;;;;;;5026539;28;20037;-91
2023/12/10 00:32:08;;;;;;;34.17;4.30;;;9.70;99.90;;;;;;5005748;28;20034;-91
2023/12/10 00:34:33;;;;;;;20.92;2.67;;;9.60;99.90;;;;;;5009544;28;20136;-92
2023/12/10 00:36:59;;;;;;;35.13;4.70;;;9.60;99.90;;;;;;5011396;28;20075;-92
2023/12/10 00:39:24;;;;;;;26.00;3.05;;;9.50;99.90;;;;;;5011892;28;20514;-92
2023/12/10 00:41:50;;;;;;;23.35;2.78;;;9.50;99.90;;;;;;5014096;28;20018;-91
2023/12/10 00:44:16;;;;;;;29.20;2.97;;;9.40;99.90;;;;;;5014065;28;20026;-91
2023/12/10 00:46:41;;;;;;;25.80;2.67;;;9.30;99.90;;;;;;4999843;28;20026;-93
2023/12/10 00:49:08;;;;;;;28.60;4.00;;;9.30;99.90;;;;;;5010191;28;20058;-92
2023/12/10 00:51:34;;;;;;;28.52;3.42;;;9.40;99.90;;;;;;5015493;28;20021;-91
2023/12/10 00:53:59;;;;;;;28.77;4.22;;;9.30;99.90;;;;;;5014629;28;20030;-92
2023/12/10 00:56:25;;;;;;;32.40;3.10;;;9.30;99.90;;;;;;5014404;28;20022;-92
2023/12/10 00:58:50;;;;;;;30.10;3.15;;;9.30;99.90;;;;;;5014478;28;20053;-92
2023/12/10 01:01:16;;;;;;;26.23;2.83;;;9.20;99.90;;;;;;5014513;28;20505;-92
2023/12/10 01:03:42;;;;;;;26.30;3.00;;;9.20;99.90;;;;;;5012989;28;20033;-92
2023/12/10 01:06:10;;;;;;;27.77;2.50;;;9.20;99.90;;;;;;5014333;28;20112;-92
2023/12/10 01:08:35;;;;;;;29.55;3.65;;;9.20;99.90;;;;;;5014669;28;20026;-91
2023/12/10 01:11:02;;;;;;;26.60;2.50;;;9.20;99.90;;;;;;5013252;28;20080;-90
2023/12/10 01:13:27;;;;;;;23.65;2.33;;;9.20;99.90;;;;;;5008280;28;20561;-90
2023/12/10 01:15:54;;;;;;;21.95;3.20;;;9.10;99.90;;;;;;5014469;28;20030;-91
2023/12/10 01:18:20;;;;;;;25.17;3.58;;;9.10;99.90;;;;;;5013289;28;20061;-90
2023/12/10 01:20:46;;;;;;;24.25;2.17;;;9.10;99.90;;;;;;5013780;28;20029;-90
2023/12/10 01:23:14;;;;;;;22.42;2.45;;;9.10;99.90;;;;;;5013746;28;20093;-91
2023/12/10 01:25:40;;;;;;;27.33;2.60;;;9.10;99.90;;;;;;5014385;28;20386;-91
2023/12/10 01:28:05;;;;;;;26.10;2.88;;;9.10;99.90;;;;;;5013683;28;20038;-91
2023/12/10 01:30:31;;;;;;;18.13;2.47;;;9.10;99.90;;;;;;5010187;28;20049;-91
2023/12/10 01:32:57;;;;;;;19.65;2.25;;;9.10;99.90;;;;;;4995443;28;20022;-91
2023/12/10 01:35:23;;;;;;;23.15;2.60;;;9.10;99.90;;;;;;5006595;28;20491;-91
2023/12/10 01:37:49;;;;;;;23.23;2.60;;;9.10;99.90;;;;;;4995809;28;20032;-91
2023/12/10 01:40:15;;;;;;;28.83;2.50;;;9.10;99.90;;;;;;5001796;28;20057;-90
2023/12/10 01:42:41;;;;;;;19.67;2.35;;;9.10;99.90;;;;;;5013423;28;20112;-91
2023/12/10 01:45:08;;;;;;;23.00;2.67;;;9.00;99.90;;;;;;5013359;28;20100;-89
2023/12/10 01:47:38;;;;;;;20.65;2.00;;;9.00;99.90;;;;;;5011402;28;20038;-91
2023/12/10 01:50:04;;;;;;;25.90;2.33;;;9.00;99.90;;;;;;5013042;28;20048;-91
2023/12/10 01:52:34;;;;;;;15.07;1.42;;;9.00;99.90;;;;;;5028719;28;20030;-91
2023/12/10 01:55:03;;;;;;;18.63;1.65;;;8.90;99.90;;;;;;5012942;28;20101;-90
2023/12/10 01:57:32;;;;;;;21.17;2.05;;;8.80;99.90;;;;;;5013283;28;20525;-91
2023/12/10 01:59:58;;;;;;;19.95;2.08;;;8.70;99.90;;;;;;5013724;28;20026;-90
2023/12/10 02:02:25;;;;;;;21.05;3.75;;;8.80;99.90;;;;;;5011275;28;20037;-91
2023/12/10 02:04:54;;;;;;;20.77;3.00;;;8.80;99.90;;;;;;5010821;28;20486;-90
2023/12/10 02:07:21;;;;;;;25.05;2.83;;;8.80;99.90;;;;;;5013033;28;20050;-90
2023/12/10 02:09:47;;;;;;;20.90;2.83;;;8.80;99.90;;;;;;5013550;28;20033;-90
2023/12/10 02:12:13;;;;;;;19.70;2.30;;;8.80;99.90;;;;;;5006925;28;20030;-91
2023/12/10 02:14:39;;;;;;;22.13;2.72;;;8.80;99.90;;;;;;5013018;28;20041;-92
2023/12/10 02:17:04;;;;;;;25.70;2.50;;;8.80;99.90;;;;;;5010771;28;20117;-91
2023/12/10 02:19:31;;;;;;;13.50;1.70;;;8.90;99.90;;;;;;5013927;28;20018;-91
2023/12/10 02:21:58;;;;;;;20.98;3.33;;;8.90;99.90;;;;;;5012908;28;20422;-90
2023/12/10 02:24:35;;;;;;;29.55;2.90;;;8.90;99.90;;;;;;5012162;28;20076;-91
2023/12/10 02:27:02;;;;;;;23.30;2.35;;;8.90;99.90;;;;;;5024137;28;20034;-91
2023/12/10 02:29:27;;;;;;;19.58;2.30;;;8.90;99.90;;;;;;5011738;28;20406;-91
2023/12/10 02:31:54;;;;;;;24.70;3.10;;;8.80;99.90;;;;;;5011416;28;20022;-89
2023/12/10 02:34:20;;;;;;;28.40;2.72;;;8.80;99.90;;;;;;5011015;28;20044;-91
2023/12/10 02:36:46;;;;;;;18.02;2.30;;;8.80;99.90;;;;;;5013403;28;20025;-89
2023/12/10 02:39:12;;;;;;;19.42;1.90;;;8.70;99.90;;;;;;5013488;28;20030;-89
2023/12/10 02:41:38;;;;;;;16.85;1.63;;;8.70;99.90;;;;;;5012923;28;20026;-90
2023/12/10 02:44:03;;;;;;;22.38;2.28;;;8.70;99.90;;;;;;5013591;28;20478;-89
2023/12/10 02:46:29;;;;;;;21.90;3.55;;;8.70;99.90;;;;;;5011458;28;20116;-89
2023/12/10 02:48:54;;;;;;;24.02;3.17;;;8.70;99.90;;;;;;5008191;28;20117;-89
2023/12/10 02:51:20;;;;;;;20.88;2.08;;;8.70;99.90;;;;;;5012987;28;20038;-88
2023/12/10 02:53:46;;;;;;;32.00;2.83;;;8.60;99.90;;;;;;5008313;28;20038;-89
2023/12/10 02:56:11;;;;;;;24.23;3.45;;;8.60;99.90;;;;;;5012139;28;20026;-89
2023/12/10 02:58:37;;;;;;;25.35;2.92;;;8.50;99.90;;;;;;5011337;28;20026;-89
2023/12/10 03:01:03;;;;;;;25.33;3.33;;;8.40;99.90;;;;;;5013211;28;20109;-89
2023/12/10 03:03:28;;;;;;;18.52;1.92;;;8.40;99.90;;;;;;5010417;28;20053;-88
2023/12/10 03:05:54;;;;;;;27.05;3.05;;;8.40;99.90;;;;;;5003959;28;20489;-90
2023/12/10 03:08:19;;;;;;;20.52;1.98;;;8.40;99.90;;;;;;5011379;28;20498;-90
2023/12/10 03:10:45;;;;;;;20.55;1.95;;;8.40;99.90;;;;;;5012400;28;20072;-90
2023/12/10 03:13:11;;;;;;;13.82;1.33;;;8.40;99.90;;;;;;4999425;28;20105;-89
2023/12/10 03:15:36;;;;;;;22.85;2.78;;;8.40;99.90;;;;;;5000111;28;20032;-89
2023/12/10 03:18:02;;;;;;;15.80;1.88;;;8.40;99.90;;;;;;5009967;28;20022;-90
2023/12/10 03:20:27;;;;;;;30.65;2.30;;;8.50;99.90;;;;;;5013036;28;20064;-90
2023/12/10 03:22:53;;;;;;;17.17;1.75;;;8.50;99.90;;;;;;5012766;28;20121;-90
2023/12/10 03:25:19;;;;;;;36.47;2.55;;;8.60;99.90;;;;;;5011140;28;20064;-90
2023/12/10 03:27:44;;;;;;;25.35;4.18;;;8.70;99.90;;;;;;5011605;28;20034;-90
2023/12/10 03:30:10;;;;;;;21.17;2.63;;;8.70;99.90;;;;;;5011365;28;20061;-89
2023/12/10 03:32:35;;;;;;;20.33;2.83;;;8.70;99.90;;;;;;5013096;28;20124;-90
2023/12/10 03:35:01;;;;;;;21.50;2.15;;;8.70;99.90;;;;;;5009518;28;20026;-89
2023/12/10 03:37:27;;;;;;;26.95;2.95;;;8.80;99.90;;;;;;5017752;28;20035;-90
2023/12/10 03:39:52;;;;;;;30.90;3.00;;;8.80;99.90;;;;;;5024147;28;20041;-89
2023/12/10 03:42:18;;;;;;;25.83;2.50;;;8.80;99.90;;;;;;5024350;28;20117;-88
2023/12/10 03:44:43;;;;;;;18.92;1.70;;;8.80;99.90;;;;;;5032047;28;20022;-90
2023/12/10 03:47:09;;;;;;;22.67;4.55;;;8.90;99.90;;;;;;5011201;28;20030;-88
2023/12/10 03:49:35;;;;;;;25.90;1.98;;;8.70;99.90;;;;;;5007304;28;20430;-88
2023/12/10 03:52:00;;;;;;;21.50;4.40;;;8.60;99.90;;;;;;5014437;28;20036;-88
2023/12/10 03:54:26;;;;;;;22.55;1.80;;;8.50;99.90;;;;;;5008083;28;20423;-89
2023/12/10 03:56:51;;;;;;;24.08;3.05;;;8.50;99.90;;;;;;5005119;28;20026;-88
2023/12/10 03:59:17;;;;;;;23.45;1.98;;;8.60;99.90;;;;;;5010984;28;20033;-89
2023/12/10 04:01:43;;;;;;;24.98;2.05;;;8.60;99.90;;;;;;5008347;28;20026;-89
2023/12/10 04:04:12;;;;;;;26.52;2.13;;;8.70;99.90;;;;;;5009533;28;20026;-89
2023/12/10 04:06:39;;;;;;;26.42;2.75;;;8.80;99.90;;;;;;5026869;28;20053;-89
2023/12/10 04:09:05;;;;;;;23.85;2.80;;;8.70;99.90;;;;;;5010912;28;20038;-89
2023/12/10 04:11:30;;;;;;;21.65;2.60;;;8.80;99.90;;;;;;5011553;28;20026;-89
2023/12/10 04:13:56;;;;;;;24.55;2.20;;;8.90;99.90;;;;;;5019145;28;20038;-89
2023/12/10 04:16:30;;;;;;;17.20;1.95;;;9.00;99.90;;;;;;4999329;28;20021;-89
2023/12/10 04:18:56;;;;;;;16.63;1.85;;;9.20;99.90;;;;;;5013832;28;20026;-90
2023/12/10 04:21:22;;;;;;;21.08;2.20;;;9.20;99.90;;;;;;5013273;28;20025;-89
2023/12/10 04:23:48;;;;;;;21.42;2.08;;;9.30;99.90;;;;;;5010134;28;20030;-90
2023/12/10 04:26:14;;;;;;;21.55;2.22;;;9.30;99.90;;;;;;5013802;28;20057;-92
2023/12/10 04:28:41;;;;;;;27.55;2.15;;;9.40;99.90;;;;;;4995849;28;20113;-90
2023/12/10 04:31:07;;;;;;;26.95;2.55;;;9.40;99.90;;;;;;5015045;28;20033;-90
2023/12/10 04:33:33;;;;;;;27.48;2.13;;;9.40;99.90;;;;;;5014009;28;20042;-90
2023/12/10 04:35:59;;;;;;;13.60;1.92;;;9.30;99.90;;;;;;5013022;28;20410;-91
2023/12/10 04:38:25;;;;;;;21.50;2.15;;;9.20;99.90;;;;;;5015801;28;20121;-90
2023/12/10 04:40:50;;;;;;;25.77;2.00;;;9.10;99.90;;;;;;5014414;28;20038;-91
2023/12/10 04:43:16;;;;;;;22.92;2.38;;;9.10;99.90;;;;;;5015575;28;20022;-90
2023/12/10 04:45:41;;;;;;;19.92;1.90;;;9.00;99.90;;;;;;5014794;28;20467;-90
2023/12/10 04:48:07;;;;;;;22.27;2.63;;;8.90;99.90;;;;;;5015666;28;20034;-88
2023/12/10 04:50:33;;;;;;;23.15;3.13;;;8.90;99.90;;;;;;5006362;28;20022;-89
2023/12/10 04:52:58;;;;;;;25.05;1.83;;;8.80;99.90;;;;;;5027107;28;20541;-89
2023/12/10 04:55:24;;;;;;;19.63;1.92;;;8.80;99.90;;;;;;5010695;28;20113;-90
2023/12/10 04:57:50;;;;;;;23.45;3.80;;;8.80;99.90;;;;;;5015234;28;20025;-90
2023/12/10 05:00:16;;;;;;;21.33;2.97;;;8.90;99.90;;;;;;5012856;28;20026;-89
2023/12/10 05:02:41;;;;;;;23.10;2.67;;;8.90;99.90;;;;;;5007734;28;20033;-89
2023/12/10 05:05:08;;;;;;;22.63;1.95;;;9.00;99.90;;;;;;5012326;28;20029;-89
2023/12/10 05:07:34;;;;;;;23.85;3.00;;;9.10;99.90;;;;;;5013475;28;20046;-89
2023/12/10 05:10:00;;;;;;;21.08;1.60;;;9.10;99.90;;;;;;5011683;28;20026;-89
2023/12/10 05:12:26;;;;;;;17.85;1.77;;;9.20;99.90;;;;;;5012292;28;20041;-90
2023/12/10 05:14:51;;;;;;;17.08;1.85;;;9.30;99.90;;;;;;5013127;28;20030;-89
2023/12/10 05:17:17;;;;;;;21.38;1.77;;;9.30;99.90;;;;;;5013159;28;20051;-89
2023/12/10 05:19:43;;;;;;;16.42;1.88;;;9.30;99.90;;;;;;5012351;28;20431;-89
2023/12/10 05:22:08;;;;;;;22.48;2.58;;;9.40;99.90;;;;;;5012040;28;20036;-89
2023/12/10 05:24:34;;;;;;;26.23;2.53;;;9.40;99.90;;;;;;5013426;28;20101;-91
2023/12/10 05:26:59;;;;;;;13.82;1.50;;;9.40;99.90;;;;;;5027340;28;20037;-92
2023/12/10 05:29:25;;;;;;;15.88;1.90;;;9.40;99.90;;;;;;5006753;28;20077;-90
2023/12/10 05:31:51;;;;;;;21.85;2.25;;;9.40;99.90;;;;;;5012210;28;20034;-90
2023/12/10 05:34:16;;;;;;;21.42;1.90;;;9.40;99.90;;;;;;5013001;28;20092;-89
2023/12/10 05:36:42;;;;;;;19.02;1.80;;;9.40;99.90;;;;;;5012746;28;20478;-90
2023/12/10 05:39:08;;;;;;;14.98;1.27;;;9.40;99.90;;;;;;5013908;28;20817;-90
2023/12/10 05:41:33;;;;;;;19.33;1.73;;;9.40;99.90;;;;;;5012385;28;20018;-90
2023/12/10 05:43:59;;;;;;;19.60;2.92;;;9.50;99.90;;;;;;5009234;28;20022;-91
2023/12/10 05:46:25;;;;;;;24.80;2.05;;;9.50;99.90;;;;;;5013148;28;20029;-90
2023/12/10 05:48:50;;;;;;;20.83;1.77;;;9.50;99.90;;;;;;5017018;28;20041;-90
2023/12/10 05:51:16;;;;;;;20.33;1.10;;;9.50;99.90;;;;;;5015548;28;20032;-90
2023/12/10 05:53:41;;;;;;;17.40;2.08;;;9.40;99.90;;;;;;5003212;28;20046;-90
2023/12/10 05:56:08;;;;;;;20.20;1.90;;;9.40;99.90;;;;;;5011675;28;20041;-92
2023/12/10 05:58:33;;;;;;;24.50;2.70;;;9.40;99.90;;;;;;5012028;28;20061;-90
2023/12/10 06:00:59;;;;;;;24.20;2.88;;;9.50;99.90;;;;;;5011882;28;20062;-90
2023/12/10 06:03:25;;;;;;;14.18;1.88;;;9.50;99.90;;;;;;5020562;28;20040;-90
2023/12/10 06:05:51;;;;;;;20.75;1.88;;;9.50;99.90;;;;;;5028160;28;20034;-91
2023/12/10 06:08:16;;;;;;;27.67;2.53;;;9.50;99.90;;;;;;5011100;28;20030;-90
2023/12/10 06:10:42;;;;;;;16.88;1.42;;;9.50;99.90;;;;;;5010839;28;20540;-91
2023/12/10 06:13:08;;;;;;;15.02;1.98;;;9.50;99.90;;;;;;5007348;28;20042;-91
2023/12/10 06:15:33;;;;;;;17.23;1.70;;;9.50;99.90;;;;;;5011128;28;20025;-90
2023/12/10 06:17:59;;;;;;;21.38;2.47;;;9.50;99.90;;;;;;5012556;28;20398;-91
2023/12/10 06:20:25;;;;;;;20.92;1.65;;;9.50;99.90;;;;;;5012383;28;20049;-90
2023/12/10 06:22:50;;;;;;;19.75;1.98;;;9.50;99.90;;;;;;5010616;28;20057;-91
2023/12/10 06:25:16;;;;;;;24.00;2.53;;;9.50;99.90;;;;;;5007340;28;20037;-90
2023/12/10 06:27:42;;;;;;;20.00;1.88;;;9.50;99.90;;;;;;5013997;28;20025;-91
2023/12/10 06:30:10;;;;;;;21.63;1.85;;;9.50;99.90;;;;;;5024538;28;20022;-90
2023/12/10 06:32:36;;;;;;;18.02;2.03;;;9.50;99.90;;;;;;5010610;28;20104;-91
2023/12/10 06:35:02;;;;;;;15.88;1.83;;;9.50;99.90;;;;;;4996680;28;20125;-91
2023/12/10 06:37:27;;;;;;;22.63;1.83;;;9.50;99.90;;;;;;5027779;28;20081;-90
2023/12/10 06:39:54;;;;;;;23.80;2.63;;;9.50;99.90;;;;;;5011671;28;20053;-91
2023/12/10 06:42:20;;;;;;;22.33;2.40;;;9.50;99.90;;;;;;5024966;28;20466;-91
2023/12/10 06:44:45;;;;;;;22.75;1.95;;;9.50;99.90;;;;;;5009947;28;20018;-92
2023/12/10 06:47:11;;;;;;;24.02;2.47;;;9.50;99.90;;;;;;4999217;28;20029;-92
2023/12/10 06:49:37;;;;;;;21.02;1.80;;;9.50;99.90;;;;;;5010441;28;20028;-92
2023/12/10 06:52:02;;;;;;;26.23;1.70;;;9.50;99.90;;;;;;5007787;28;20052;-92
2023/12/10 06:54:28;;;;;;;24.08;2.08;;;9.50;99.90;;;;;;5009453;28;20043;-91
2023/12/10 06:56:54;;;;;;;26.88;2.00;;;9.50;99.90;;;;;;5010715;28;20068;-91
2023/12/10 06:59:19;;;;;;;15.45;2.08;;;9.50;99.90;;;;;;5005753;28;20490;-91
2023/12/10 07:01:45;;;;;;;24.05;2.17;;;9.50;99.90;;;;;;5005833;28;20028;-91
2023/12/10 07:04:10;;;;;;;22.80;2.55;;;9.40;99.90;;;;;;5018478;28;20034;-91
2023/12/10 07:06:36;;;;;;;22.27;2.20;;;9.50;99.90;;;;;;5012527;28;20172;-92
2023/12/10 07:09:02;;;;;;;18.95;1.80;;;9.50;99.90;;;;;;5011352;28;20041;-92
2023/12/10 07:11:27;;;;;;;26.85;2.70;;;9.50;99.90;;;;;;5009843;28;20034;-91
2023/12/10 07:13:53;;;;;;;18.65;2.15;;;9.50;99.90;;;;;;5012486;28;20038;-91
2023/12/10 07:16:19;;;;;;;26.85;2.55;;;9.50;99.90;;;;;;5011002;28;20026;-91
2023/12/10 07:18:45;;;;;;;18.65;1.67;;;9.40;99.90;;;;;;5006477;28;20034;-91
2023/12/10 07:21:11;;;;;;;18.88;2.03;;;9.50;99.90;;;;;;5012091;28;20022;-92
2023/12/10 07:23:37;;;;;;;25.50;2.30;;;9.40;99.90;;;;;;5013256;28;20038;-92
2023/12/10 07:26:04;;;;;;;24.90;2.67;;;9.40;99.90;;;;;;5021301;28;20026;-91
2023/12/10 07:28:29;;;;;;;15.13;1.20;;;9.40;99.90;;;;;;5006778;28;20057;-92
2023/12/10 07:30:55;;;;;;;28.60;1.65;;;9.40;99.90;;;;;;5011482;28;20053;-91
2023/12/10 07:33:21;;;;;;;25.25;2.38;;;9.40;99.90;;;;;;5027601;28;20029;-90
2023/12/10 07:35:47;;;;;;;25.92;2.65;;;9.40;99.90;;;;;;5029417;28;20049;-91
2023/12/10 07:38:13;;;;;;;17.75;1.80;;;9.40;99.90;;;;;;5011457;28;20117;-91
2023/12/10 07:40:39;;;;;;;28.30;2.60;;;9.40;99.90;;;;;;5011725;28;20057;-90
2023/12/10 07:43:06;;;;;;;17.35;1.60;;;9.40;99.90;;;;;;5011833;28;20866;-92
2023/12/10 07:45:31;;;;;;;20.27;1.70;;;9.30;99.90;;;;;;5010530;28;20037;-92
2023/12/10 07:47:57;;;;;;;22.20;2.38;;;9.40;99.90;;;;;;5023602;28;20031;-92
2023/12/10 07:50:23;;;;;;;18.83;1.88;;;9.40;99.90;;;;;;5008043;28;20071;-92
2023/12/10 07:52:48;;;;;;;25.55;2.58;;;9.40;99.90;;;;;;5014645;28;20056;-92
2023/12/10 07:55:14;;;;;;;18.17;2.20;;;9.40;99.90;;;;;;5014811;28;20030;-92
2023/12/10 07:57:40;;;;;;;24.83;3.67;;;9.40;99.90;;;;;;5010007;28;20022;-93
2023/12/10 08:00:06;;;;;;;16.23;2.28;;;9.40;99.90;;;;;;4998291;28;20497;-92
2023/12/10 08:02:32;;;;;;;21.05;1.85;;;9.40;99.90;;;;;;5013221;28;20024;-92
2023/12/10 08:05:01;;;;;;;25.50;2.53;;;9.40;99.90;;;;;;5031215;28;20386;-92
2023/12/10 08:07:27;;;;;;;24.80;1.83;;;9.40;99.90;;;;;;5007505;28;20090;-92
2023/12/10 08:09:52;;;;;;;22.10;2.40;;;9.40;99.90;;;;;;5011397;28;20498;-92
2023/12/10 08:12:18;;;;;;;16.08;1.67;;;9.40;99.90;;;;;;5012946;28;20030;-91
2023/12/10 08:14:44;;;;;;;15.20;1.50;;;9.40;99.90;;;;;;5010060;28;20462;-92
2023/12/10 08:17:10;;;;;;;20.27;1.63;;;9.40;99.90;;;;;;5005465;28;20030;-92
2023/12/10 08:19:36;;;;;;;14.98;1.50;;;9.40;99.90;;;;;;5011354;28;20030;-92
2023/12/10 08:22:02;;;;;;;16.83;1.70;;;9.40;99.90;;;;;;5010517;28;20112;-91
2023/12/10 08:24:28;;;;;;;13.85;1.38;;;9.40;99.90;;;;;;5012412;28;20117;-91
2023/12/10 08:26:54;;;;;;;24.33;3.47;;;9.40;99.90;;;;;;5031196;28;20083;-91
2023/12/10 08:29:20;;;;;;;17.40;1.90;;;9.40;99.90;;;;;;5009988;28;20089;-91
2023/12/10 08:31:45;;;;;;;23.85;2.28;;;9.40;99.90;;;;;;5030672;28;20077;-91
2023/12/10 08:34:11;;;;;;;21.67;1.83;;;9.40;99.90;;;;;;5014761;28;20107;-91
2023/12/10 08:36:39;;;;;;;24.88;2.17;;;9.40;99.90;;;;;;5027885;28;20018;-93
2023/12/10 08:39:06;;;;;;;20.05;2.33;;;9.40;99.90;;;;;;5014673;28;20037;-92
2023/12/10 08:41:32;;;;;;;22.40;2.30;;;9.40;99.90;;;;;;5014320;28;20021;-92
2023/12/10 08:43:57;;;;;;;17.15;1.55;;;9.40;99.90;;;;;;5004530;28;20504;-92
2023/12/10 08:46:23;;;;;;;20.65;2.03;;;9.40;99.90;;;;;;5014409;28;20029;-92
2023/12/10 08:48:49;;;;;;;20.23;2.70;;;9.40;99.90;;;;;;5015514;28;20038;-92
2023/12/10 08:51:14;;;;;;;21.30;1.83;;;9.50;99.90;;;;;;5014474;28;20616;-91
2023/12/10 08:53:40;;;;;;;19.83;2.60;;;9.50;99.90;;;;;;5010677;28;20422;-92
2023/12/10 08:56:06;;;;;;;22.17;1.88;;;9.50;99.90;;;;;;5029532;28;20107;-91
2023/12/10 08:58:33;;;;;;;14.13;2.00;;;9.50;99.90;;;;;;5012705;28;20030;-92
2023/12/10 09:00:59;;;;;;;19.42;1.80;;;9.50;99.90;;;;;;5012063;28;20033;-92
2023/12/10 09:03:25;;;;;;;29.42;2.15;;;9.50;99.90;;;;;;5013770;28;20037;-92
2023/12/10 09:05:50;;;;;;;17.63;1.77;;;9.50;99.90;;;;;;5015124;28;20038;-91
2023/12/10 09:08:17;;;;;;;20.05;2.15;;;9.50;99.90;;;;;;5027587;28;20046;-91
2023/12/10 09:10:44;;;;;;;17.88;1.75;;;9.50;99.90;;;;;;5006750;28;20486;-91
2023/12/10 09:13:09;;;;;;;22.13;2.10;;;9.50;99.90;;;;;;5005134;28;20495;-91
2023/12/10 09:15:35;;;;;;;19.27;1.85;;;9.50;99.90;;;;;;5000433;28;20026;-91
2023/12/10 09:18:01;;;;;;;15.63;1.67;;;9.50;99.90;;;;;;5005984;28;20025;-91
2023/12/10 09:20:26;;;;;;;19.67;1.55;;;9.50;99.90;;;;;;5007348;28;20509;-91
2023/12/10 09:22:52;;;;;;;14.23;1.50;;;9.50;99.90;;;;;;5003723;28;20029;-92
2023/12/10 09:25:18;;;;;;;25.38;3.03;;;9.50;99.90;;;;;;5009577;28;20022;-91
2023/12/10 09:27:43;;;;;;;22.33;2.85;;;9.50;99.90;;;;;;5011729;28;20033;-91
2023/12/10 09:30:09;;;;;;;18.48;1.80;;;9.50;99.90;;;;;;5003500;28;20495;-91
2023/12/10 09:32:35;;;;;;;18.92;2.17;;;9.50;99.90;;;;;;4998963;28;20026;-91
2023/12/10 09:35:01;;;;;;;18.73;1.70;;;9.50;99.90;;;;;;5020135;28;20130;-92
2023/12/10 09:37:27;;;;;;;17.45;2.35;;;9.50;99.90;;;;;;5008642;28;20022;-92
2023/12/10 09:39:52;;;;;;;22.13;2.00;;;9.60;99.90;;;;;;5008219;28;20037;-91
2023/12/10 09:42:18;;;;;;;21.33;1.67;;;9.60;99.90;;;;;;5010457;28;20390;-90
2023/12/10 09:44:44;;;;;;;21.35;3.05;;;9.60;99.90;;;;;;5004870;28;20026;-92
2023/12/10 09:47:10;;;;;;;20.90;2.05;;;9.70;99.90;;;;;;5008824;28;20425;-92
2023/12/10 09:49:40;;;;;;;18.42;1.73;;;9.70;99.90;;;;;;5009956;28;20472;-93
2023/12/10 09:52:06;;;;;;;26.00;2.50;;;9.70;99.90;;;;;;5004823;28;20514;-92
2023/12/10 09:54:32;;;;;;;19.98;3.10;;;9.70;99.90;;;;;;4984359;28;20111;-92
2023/12/10 09:56:58;;;;;;;19.27;1.75;;;9.70;99.90;;;;;;5007896;28;20025;-92
2023/12/10 09:59:23;;;;;;;18.63;1.65;;;9.70;99.90;;;;;;4999412;28;20025;-92
2023/12/10 10:01:50;;;;;;;17.45;1.95;;;9.70;99.90;;;;;;4994039;28;20054;-92
2023/12/10 10:04:16;;;;;;;20.85;2.38;;;9.80;99.90;;;;;;4998027;28;20049;-91
2023/12/10 10:06:42;;;;;;;11.77;1.45;;;9.80;99.90;;;;;;5004440;28;21502;-91
2023/12/10 10:09:08;;;;;;;24.10;1.70;;;9.80;99.90;;;;;;5026940;28;20023;-91
2023/12/10 10:11:34;;;;;;;16.58;2.28;;;9.80;99.90;;;;;;5009000;28;20501;-92
2023/12/10 10:14:00;;;;;;;21.42;1.88;;;9.80;99.90;;;;;;5007074;28;20042;-92
2023/12/10 10:16:26;;;;;;;18.00;1.98;;;9.70;99.90;;;;;;5010109;28;20022;-90
2023/12/10 10:18:51;;;;;;;21.88;2.88;;;9.70;99.90;;;;;;5003316;28;20045;-92
2023/12/10 10:21:17;;;;;;;19.52;2.60;;;9.60;99.90;;;;;;5007642;28;20489;-91
2023/12/10 10:23:43;;;;;;;27.20;2.63;;;9.50;99.90;;;;;;5011520;28;20037;-92
2023/12/10 10:26:10;;;;;;;18.60;1.98;;;9.50;99.90;;;;;;5010770;28;20041;-91
2023/12/10 10:28:37;;;;;;;16.30;1.85;;;9.50;99.90;;;;;;5006768;28;20022;-93
2023/12/10 10:31:03;;;;;;;17.08;1.42;;;9.60;99.90;;;;;;5020934;28;20029;-93
2023/12/10 10:33:28;;;;;;;19.23;1.50;;;9.60;99.90;;;;;;5009115;28;20044;-93
2023/12/10 10:35:54;;;;;;;22.83;1.77;;;9.60;99.90;;;;;;5012704;28;20096;-92
2023/12/10 10:38:21;;;;;;;13.73;1.48;;;9.70;99.90;;;;;;5010034;28;20646;-94
2023/12/10 10:40:49;;;;;;;20.38;1.90;;;9.80;99.90;;;;;;5010845;28;20041;-93
2023/12/10 10:43:15;;;;;;;22.95;2.58;;;9.90;99.90;;;;;;5006366;28;20040;-94
2023/12/10 10:45:41;;;;;;;19.58;2.03;;;9.90;99.90;;;;;;5006009;28;20490;-92
2023/12/10 10:48:08;;;;;;;18.73;1.90;;;10.00;99.90;;;;;;5004601;28;20022;-91
2023/12/10 10:50:37;;;;;;;22.85;1.83;;;10.10;99.90;;;;;;5023829;28;20059;-93
2023/12/10 10:53:03;;;;;;;18.38;1.50;;;10.10;99.90;;;;;;5011026;28;20026;-92
2023/12/10 10:55:29;;;;;;;16.75;1.92;;;10.10;99.90;;;;;;5012047;28;20045;-92
2023/12/10 10:57:55;;;;;;;27.08;3.42;;;10.10;99.90;;;;;;5012625;28;20029;-93
2023/12/10 11:00:21;;;;;;;23.90;2.22;;;10.20;99.90;;;;;;5008742;28;20026;-93
2023/12/10 11:02:49;;;;;;;17.52;1.80;;;10.20;99.90;;;;;;5005002;28;20026;-93
2023/12/10 11:05:32;;;;;;;21.02;1.88;;;10.30;99.90;;;;;;5030132;28;20090;-90
2023/12/10 11:07:57;;;;;;;23.27;2.05;;;10.30;99.90;;;;;;5002136;28;20034;-93
2023/12/10 11:10:23;;;;;;;20.30;1.40;;;10.30;99.90;;;;;;5003783;28;20056;-91
2023/12/10 11:12:49;;;;;;;33.08;2.33;;;10.40;99.90;;;;;;5007403;28;20076;-92
2023/12/10 11:15:18;;;;;;;17.98;1.75;;;10.40;99.90;;;;;;5011890;28;20040;-92
2023/12/10 11:18:00;;;;;;;21.55;3.55;;;10.40;99.90;;;;;;5010451;28;20020;-92
2023/12/10 11:20:38;;;;;;;13.98;1.55;;;10.50;99.90;;;;;;5027396;28;20026;-92
2023/12/10 11:23:12;;;;;;;23.35;2.67;;;10.60;99.90;;;;;;5022222;28;20036;-93
2023/12/10 11:25:39;;;;;;;16.88;1.73;;;10.60;99.90;;;;;;5016651;28;20027;-94
2023/12/10 11:28:12;;;;;;;18.45;2.42;;;10.60;99.90;;;;;;5009249;28;20038;-93
2023/12/10 11:30:39;;;;;;;19.88;1.58;;;10.70;99.90;;;;;;4998186;28;20022;-92
2023/12/10 11:33:05;;;;;;;15.68;1.73;;;10.70;99.90;;;;;;5022493;28;20129;-94
2023/12/10 11:35:32;;;;;;;22.55;1.65;;;10.80;99.90;;;;;;5004120;28;20148;-93
2023/12/10 11:37:57;;;;;;;14.27;1.88;;;10.80;99.90;;;;;;5016242;28;20049;-93
2023/12/10 11:40:23;;;;;;;23.98;2.60;;;10.80;99.90;;;;;;5014070;28;20493;-94
2023/12/10 11:42:49;;;;;;;14.70;1.33;;;10.80;99.90;;;;;;5012643;28;20026;-93
2023/12/10 11:45:15;;;;;;;14.30;1.40;;;10.80;99.90;;;;;;5010627;28;20071;-93
2023/12/10 11:47:42;;;;;;;16.40;1.75;;;10.70;99.90;;;;;;5018458;28;20022;-93
2023/12/10 11:50:12;;;;;;;14.93;1.30;;;10.80;99.90;;;;;;5011461;28;20049;-93
2023/12/10 11:52:39;;;;;;;17.35;1.65;;;10.80;99.90;;;;;;5007005;28;20050;-92
2023/12/10 11:55:07;;;;;;;12.75;1.10;;;10.80;99.90;;;;;;5009350;28;20038;-92
2023/12/10 11:57:33;;;;;;;19.08;1.63;;;10.70;99.90;;;;;;5019573;28;20471;-92
2023/12/10 12:00:01;;;;;;;16.52;0.98;;;10.80;99.90;;;;;;5011695;28;20379;-91
2023/12/10 12:02:27;;;;;;;15.60;1.60;;;10.80;99.90;;;;;;5010984;28;20028;-92
2023/12/10 12:04:53;;;;;;;14.02;1.10;;;10.90;99.90;;;;;;5011175;28;20124;-92
2023/12/10 12:07:23;;;;;;;16.02;0.98;;;11.00;99.90;;;;;;5009287;28;20538;-92
2023/12/10 12:09:48;;;;;;;12.75;1.65;;;11.10;99.90;;;;;;5007009;28;20026;-93
2023/12/10 12:12:14;;;;;;;12.30;0.80;;;11.10;99.90;;;;;;5011113;28;20030;-92
2023/12/10 12:14:40;;;;;;;17.90;0.95;;;11.00;99.90;;;;;;5010781;28;20042;-93
2023/12/10 12:17:06;;;;;;;10.07;0.90;;;11.00;99.90;;;;;;5010933;28;20033;-92
2023/12/10 12:19:32;;;;;;;11.20;1.15;;;11.10;99.90;;;;;;5014488;28;20026;-93
2023/12/10 12:21:59;;;;;;;11.68;1.25;;;11.20;99.90;;;;;;5012544;28;20022;-93
2023/12/10 12:24:25;;;;;;;11.63;0.70;;;11.20;99.90;;;;;;5008807;28;20022;-91
2023/12/10 12:26:51;;;;;;;14.45;1.67;;;11.10;99.90;;;;;;5008161;28;20034;-93
2023/12/10 12:29:17;;;;;;;15.38;1.23;;;11.10;99.90;;;;;;5008540;28;20037;-91
2023/12/10 12:31:43;;;;;;;14.00;1.40;;;11.00;99.90;;;;;;5010355;28;20033;-93
2023/12/10 12:34:08;;;;;;;16.60;1.70;;;11.00;99.90;;;;;;5007239;28;20042;-94
2023/12/10 12:36:34;;;;;;;14.85;1.67;;;10.90;99.90;;;;;;5019125;28;20030;-92
2023/12/10 12:39:03;;;;;;;8.77;0.80;;;10.90;99.90;;;;;;5013752;28;20113;-92